AirNav   ATP
 
 1155 users online  

5D7 Dayton Transportation Center Heliport
Dayton, Ohio, USA

GOING TO DAYTON?


FAA INFORMATION EFFECTIVE 01 FEBRUARY 2018

Location

FAA Identifier: 5D7
Lat/Long: 39-45-27.2000N / 084-11-18.2200W
39-45.453333N / 084-11.303667W
39.7575556 / -84.1883944
(estimated)
Elevation: 800 ft. / 244 m (estimated)
Variation: 04W (1985)
Time zone: UTC -5 (UTC -4 during Daylight Saving Time)
Zip code: 45402

Heliport Operations

Heliport use: Open to the public
Activation date: 11/1977
Control tower: no
ARTCC: INDIANAPOLIS CENTER
FSS: DAYTON FLIGHT SERVICE STATION
NOTAMs facility: DAY (NOTAM-D service available)
Attendance: UNATNDD
Wind indicator: yes
Segmented circle: no
Lights: FOR PERIMETER LGTS CALL SUPT OF ACFT OPNS AT 937-454-8299. 24-HR ADVANCE NOTICE FOR USE REQUIRED.
Beacon: white-green-yellow (heliport)
FOR BCN CALL SUPT OF ACFT OPNS AT 937-454-8299. 24-HR ADVANCE NOTICE FOR USE REQUIRED.

Heliport Communications

CTAF: 122.9
WX ASOS at DAY (9 nm N): PHONE 937-415-6819
WX AWOS-3 at I19 (10 nm SE): 118.525 (937-372-4668)
WX ASOS at MGY (10 nm S): 118.375 (937-885-2171)
WX AWOS-3 at MWO (17 nm SW): 120.025 (513-422-3505)
WX AWOS-3PT at SGH (17 nm E): 134.975
WX AWOS-3 at I68 (18 nm S): 120.55 (513-934-5500)

Nearby radio navigation aids

VOR radial/distance  VOR name  Freq  Var
SGHr257/16.5SPRINGFIELD VOR/DME113.2004W
DQNr149/18.3DAYTON VOR/DME114.5001W
MXQr322/26.6MIDWEST VOR/DME112.9004W
RIDr093/30.0RICHMOND VORTAC110.6003W
RODr197/32.5ROSEWOOD VORTAC117.5005W

 
NDB name  Hdg/Dist  Freq  Var  ID
BRUNY134/8.631506WAT .- -
ONIDA034/12.422304WMW -- .--
HOOK FIELD042/19.623904WHKF .... -.- ..-.
CLARK COUNTY254/20.134104WCCJ -.-. -.-. .---
MADEIRA018/33.037904WMDE -- -.. .
CINCINNATI015/36.633504WLUK .-.. ..- -.-
COURT HOUSE290/38.041406WCSS -.-. ... ...

Heliport Services

Runway Information

Helipad H1

Dimensions: 40 x 40 ft. / 12 x 12 m
Surface: concrete, in good condition
ROOFTOP: 40 FT BY 40 FT CONCRETE PAD WITHIN 80 FT BY 60 FT LANDING/TAKEOFF AREA. MAXIMUM LANDING WEIGHT 4500 POUNDS.
Weight bearing capacity: 
Single wheel: 4500.0
Runway edge lights: PERI
Latitude: 39-45.453333N
Longitude: 084-11.303667W
Elevation: 800.0 ft.
Traffic pattern: leftleft
Markings: none
Obstructions: 85 ft. bldg, 315 ft. from runway, 3:1 slope to clear
APCH 39:1 FM N, 3:1 FM W, 25:1 FM S, 11:1 FM E.

Heliport Ownership and Management from official FAA records

Ownership: Publicly-owned
Owner: CITY OF DAYTON
101 W THIRD ST
DAYTON, OH 45402
Phone 937-454-8299
Manager: DEPARTMENT OF AVIATION
101 W. THIRD ST.
VANDALIA, OH 45377
Phone 937-454-8299
ROOM 304; TERMINAL BLDG; 3600 TERMINAL DRIVE DAYTON INTL ARPT.

Heliport Operational Statistics

Aircraft operations: 12/year *
100% transient general aviation
* for 12-month period ending 02 September 2016

Instrument Procedures

There are no published instrument procedures at 5D7.

Some nearby airports with instrument procedures:

KFFO - Wright-Patterson Air Force Base (8 nm NE)
KDAY - James M Cox Dayton International Airport (9 nm N)
I19 - Greene County-Lewis A Jackson Regional Airport (10 nm SE)
KMGY - Dayton-Wright Brothers Airport (10 nm S)
3I7 - Phillipsburg Airport (14 nm NW)
KMWO - Middletown Regional Airport/Hook Field (17 nm SW)
KSGH - Springfield-Beckley Municipal Airport (17 nm E)
I68 - Warren County Airport/John Lane Field (18 nm S)
 
Loc | Ops | Rwys | IFR | FBO | Links
Com | Nav | Svcs | Stats | Notes

AirNav Hotels Sweepstakes
 
Area around 5D7 (Dayton Transportation Center Heliport)
 
Road maps at: MapQuest Bing Google
 
Aerial photo
No photo
 
Sectional chart

 
Airport distance calculator
Flying to Dayton Transportation Center Heliport? Find the distance to fly.

From to 5D7

Sunrise and sunset
Times for 20-Feb-2018
 Local
(UTC-5)
 Zulu
(UTC)
Morning civil twilight06:5611:56
Sunrise07:2412:24
Sunset18:1723:17
Evening civil twilight18:4523:45

Current date and time
Zulu (UTC)  20-Feb-2018 14:04:48
Local (UTC-5)  20-Feb-2018 09:04:48
 
METAR
KFFO 
8nm NE 
201256Z 18013KT 10SM FEW100 BKN250 17/14 A3011 RMK AO2A SLP196 T01720141
KDAY 
9nm N 
201356Z 19019G26KT 10SM BKN095 BKN140 17/14 A3010 RMK AO2 PK WND 20028/1345 SLP190 T01720144
KMGY 
10nm S 
201353Z AUTO 20016G22KT 10SM CLR 18/13 A3013 RMK AO2 SLP196 T01830133
KMWO 
17nm SW 
201355Z AUTO 21013G19KT 10SM CLR 19/14 A3013 RMK AO2 PWINO T01880139
KSGH 
18nm E 
201356Z AUTO 20014G18KT 10SM CLR 17/13 A3013 RMK AO2 SLP201 T01720133
TAF
KFFO 
8nm NE 
201100Z 2011/2117 20012G18KT 9999 OVC090 WS020/24050KT QNH3006INS TEMPO 2011/2015 20015G25KT 520202 530402 BECMG 2014/2015 20015G25KT 9999 SCT050 OVC090 WS020/24050KT QNH3008INS TEMPO 2015/2017 21025G35KT 520003 530302 BECMG 2016/2017 21025G35KT 9999 BKN050 520005 QNH3011INS BECMG 2021/2022 21015G25KT 9999 BKN030 510103 520401 QNH3012INS BECMG 2100/2101 21012G18KT 9999 OVC015 510153 QNH3014INS BECMG 2110/2111 21015G25KT 4800 -SHRA BR OVC010 510153 QNH3011INS BECMG 2113/2114 33015G25KT 4800 -SHRA
KDAY 
9nm N 
201139Z 2012/2112 20015KT P6SM SCT080 BKN250 WS020/22050KT FM201400 20018G28KT P6SM FEW045 BKN100 FM201800 21020G30KT P6SM FEW040 FM202200 19015G22KT P6SM BKN035 FM210600 19015G22KT P6SM VCSH BKN025 OVC040 FM211000 33012KT 4SM -SHRA BR OVC012
NOTAMs
Click for the latest NOTAMs
NOTAMs are issued by the DoD/FAA and will open in a separate window not controlled by AirNav.

 

 
 

Would you like to see your business listed on this page?

 If your business provides an interesting product or service to pilots, flight crews, aircraft, or users of the Dayton Transportation Center Heliport, you should consider listing it here.  To start the listing process, click on the button below
 
Add a business
 

Other Pages about Dayton Transportation Center Heliport

Update a link
 
Copyright © AirNav, LLC. All rights reserved. Privacy Policy  Contact